Time;durP1;ratioP1;P1;durP2;ratioP2;P2;SDS_P1;SDS_P2;PMS_P1;PMS_P2;Temp;Humidity;BMP_temperature;BMP_pressure;BME280_temperature;BME280_humidity;BME280_pressure;Samples;Min_cycle;Max_cycle;Signal;HPM_P1;HPM_P2
2022/05/09 00:00:06;;;;;;;17.73;4.82;;;6.20;99.90;;;;;;4989739;28;20057;-68
2022/05/09 00:02:32;;;;;;;20.17;4.53;;;6.20;99.90;;;;;;4980987;28;20048;-66
2022/05/09 00:04:58;;;;;;;13.35;4.03;;;6.20;99.90;;;;;;4994024;28;20363;-67
2022/05/09 00:07:24;;;;;;;13.43;4.30;;;6.20;99.90;;;;;;5009593;28;20053;-68
2022/05/09 00:09:50;;;;;;;11.25;3.65;;;6.10;99.90;;;;;;4992192;28;20041;-68
2022/05/09 00:12:16;;;;;;;14.48;3.65;;;6.10;99.90;;;;;;4991317;28;20029;-68
2022/05/09 00:14:42;;;;;;;9.48;3.53;;;6.20;99.90;;;;;;4989856;28;20056;-67
2022/05/09 00:17:08;;;;;;;16.08;4.18;;;6.50;99.90;;;;;;5007002;28;20049;-67
2022/05/09 00:19:34;;;;;;;11.45;4.13;;;6.20;99.90;;;;;;5008414;28;20386;-68
2022/05/09 00:22:00;;;;;;;214.55;8.57;;;6.20;99.90;;;;;;4972962;28;20101;-67
2022/05/09 00:24:26;;;;;;;11.35;3.65;;;6.00;99.90;;;;;;4994534;28;20406;-67
2022/05/09 00:26:52;;;;;;;14.77;5.07;;;5.90;99.90;;;;;;4993777;28;20490;-67
2022/05/09 00:29:20;;;;;;;14.45;4.18;;;6.00;99.90;;;;;;4991602;28;20495;-68
2022/05/09 00:31:49;;;;;;;15.93;4.68;;;6.00;99.90;;;;;;5003235;28;20363;-68
2022/05/09 00:34:17;;;;;;;12.95;4.40;;;5.90;99.90;;;;;;4966724;28;20034;-70
2022/05/09 00:36:44;;;;;;;13.95;4.47;;;6.00;99.90;;;;;;4971251;28;20057;-67
2022/05/09 00:39:10;;;;;;;7.05;3.40;;;6.10;99.90;;;;;;4996914;28;20132;-67
2022/05/09 00:41:41;;;;;;;15.60;4.50;;;6.00;99.90;;;;;;4997538;28;20042;-67
2022/05/09 00:44:19;;;;;;;14.43;4.70;;;6.00;99.90;;;;;;4996831;28;20090;-68
2022/05/09 00:46:48;;;;;;;15.07;4.78;;;5.90;99.90;;;;;;4981152;28;20049;-68
2022/05/09 00:49:47;;;;;;;17.42;4.53;;;5.90;99.90;;;;;;4995710;28;20046;-68
2022/05/09 00:52:48;;;;;;;17.88;5.32;;;5.90;99.90;;;;;;4990777;28;20057;-67
2022/05/09 00:55:28;;;;;;;12.30;4.75;;;5.90;99.90;;;;;;4980424;28;20054;-67
2022/05/09 00:58:08;;;;;;;12.50;4.38;;;5.80;99.90;;;;;;4989557;28;20044;-68
2022/05/09 01:00:34;;;;;;;15.80;4.68;;;5.80;99.90;;;;;;4983882;28;20377;-68
2022/05/09 01:03:07;;;;;;;15.95;4.68;;;5.80;99.90;;;;;;4973500;28;20503;-67
2022/05/09 01:05:33;;;;;;;14.85;4.45;;;5.80;99.90;;;;;;4990700;28;20049;-67
2022/05/09 01:07:59;;;;;;;8.82;4.10;;;5.80;99.90;;;;;;4990981;28;20384;-68
2022/05/09 01:10:33;;;;;;;12.15;3.78;;;5.90;99.90;;;;;;4972530;28;20050;-67
2022/05/09 01:13:07;;;;;;;9.43;3.97;;;5.90;99.90;;;;;;4972960;28;20192;-68
2022/05/09 01:15:33;;;;;;;11.93;3.83;;;5.90;99.90;;;;;;4979848;28;20052;-67
2022/05/09 01:18:02;;;;;;;10.40;3.90;;;5.80;99.90;;;;;;4974112;28;20040;-69
2022/05/09 01:20:28;;;;;;;11.13;4.07;;;5.70;99.90;;;;;;5002493;28;20041;-69
2022/05/09 01:22:58;;;;;;;10.18;3.60;;;5.70;99.90;;;;;;4992655;28;20041;-68
2022/05/09 01:25:25;;;;;;;10.77;3.80;;;5.60;99.90;;;;;;4994001;28;20386;-68
2022/05/09 01:27:51;;;;;;;14.50;4.25;;;5.60;99.90;;;;;;4976223;28;20053;-68
2022/05/09 01:30:45;;;;;;;15.02;5.22;;;5.60;99.90;;;;;;4996421;28;20054;-67
2022/05/09 01:33:20;;;;;;;15.55;4.30;;;5.50;99.90;;;;;;5001731;28;20046;-69
2022/05/09 01:35:58;;;;;;;21.73;5.13;;;5.60;99.90;;;;;;4989713;28;20049;-69
2022/05/09 01:38:33;;;;;;;15.05;4.45;;;5.70;99.90;;;;;;4990976;28;20375;-68
2022/05/09 01:40:59;;;;;;;15.10;5.15;;;5.70;99.90;;;;;;4991128;28;20104;-68
2022/05/09 01:43:38;;;;;;;11.40;3.70;;;5.70;99.90;;;;;;4995549;28;20579;-68
2022/05/09 01:46:17;;;;;;;11.02;4.57;;;5.70;99.90;;;;;;5011869;28;20046;-68
2022/05/09 01:51:29;;;;;;;8.93;3.75;;;5.50;99.90;;;;;;4986581;28;20054;-68
2022/05/09 01:53:54;;;;;;;10.50;5.00;;;5.40;99.90;;;;;;4994136;28;20052;-67
2022/05/09 01:56:24;;;;;;;8.63;3.92;;;5.30;99.90;;;;;;4994319;28;20125;-67
2022/05/09 01:58:51;;;;;;;14.48;5.10;;;5.30;99.90;;;;;;4991499;28;20672;-67
2022/05/09 02:01:19;;;;;;;15.55;4.90;;;5.30;99.90;;;;;;4975259;28;20046;-69
2022/05/09 02:03:46;;;;;;;13.20;4.60;;;5.30;99.90;;;;;;4975632;28;20069;-67
2022/05/09 02:06:14;;;;;;;14.43;4.53;;;5.90;99.90;;;;;;4977706;28;20073;-67
2022/05/09 02:08:41;;;;;;;17.70;5.68;;;5.30;99.90;;;;;;4992336;28;20038;-68
2022/05/09 02:11:07;;;;;;;9.63;4.13;;;5.30;99.90;;;;;;4998867;28;20048;-67
2022/05/09 02:13:34;;;;;;;123.32;6.50;;;5.30;99.90;;;;;;4993103;28;20128;-68
2022/05/09 02:16:00;;;;;;;12.05;4.05;;;5.30;99.90;;;;;;4992261;28;20131;-67
2022/05/09 02:18:26;;;;;;;13.65;4.85;;;5.20;99.90;;;;;;4991655;28;20041;-67
2022/05/09 02:20:52;;;;;;;10.75;4.35;;;5.20;99.90;;;;;;4991743;28;20054;-67
2022/05/09 02:23:19;;;;;;;12.02;4.45;;;5.20;99.90;;;;;;4992272;28;20061;-67
2022/05/09 02:25:45;;;;;;;12.63;4.80;;;5.20;99.90;;;;;;4990541;28;20041;-67
2022/05/09 02:28:13;;;;;;;11.65;5.07;;;5.20;99.90;;;;;;4991086;28;20498;-68
2022/05/09 02:30:40;;;;;;;14.23;5.00;;;5.30;99.90;;;;;;5006892;28;20053;-67
2022/05/09 02:33:08;;;;;;;11.50;4.65;;;5.30;99.90;;;;;;4976659;28;20042;-68
2022/05/09 02:35:35;;;;;;;10.07;4.45;;;5.30;99.90;;;;;;4984997;28;20042;-69
2022/05/09 02:38:02;;;;;;;9.70;3.97;;;5.70;99.90;;;;;;4993813;28;20050;-68
2022/05/09 02:40:28;;;;;;;10.35;4.47;;;5.20;99.90;;;;;;4977716;28;20434;-68
2022/05/09 02:42:56;;;;;;;13.30;4.25;;;5.20;99.90;;;;;;4987706;28;20046;-67
2022/05/09 02:45:22;;;;;;;9.05;4.10;;;5.20;99.90;;;;;;4994238;28;20439;-68
2022/05/09 02:47:48;;;;;;;6.65;3.78;;;5.10;99.90;;;;;;4987960;28;20129;-67
2022/05/09 02:50:17;;;;;;;6.38;3.28;;;5.10;99.90;;;;;;4965942;28;20042;-67
2022/05/09 02:52:43;;;;;;;9.27;4.05;;;5.10;99.90;;;;;;4959745;28;20398;-67
2022/05/09 02:55:12;;;;;;;7.88;3.17;;;5.00;99.90;;;;;;4987303;28;20096;-67
2022/05/09 02:57:38;;;;;;;8.52;3.97;;;5.00;99.90;;;;;;4978071;28;20046;-69
2022/05/09 03:00:07;;;;;;;12.88;4.50;;;5.00;99.90;;;;;;4999092;28;20053;-68
2022/05/09 03:02:33;;;;;;;15.93;4.60;;;5.00;99.90;;;;;;4990293;28;20052;-69
2022/05/09 03:04:59;;;;;;;8.35;4.28;;;5.10;99.90;;;;;;5011258;28;20060;-67
2022/05/09 03:07:25;;;;;;;8.07;3.13;;;5.00;99.90;;;;;;4974609;28;20048;-67
2022/05/09 03:09:51;;;;;;;3.88;2.40;;;5.00;99.90;;;;;;4990711;28;20081;-70
2022/05/09 03:12:19;;;;;;;3.15;1.80;;;4.90;99.90;;;;;;4992624;28;20064;-67
2022/05/09 03:14:47;;;;;;;3.85;1.48;;;4.90;99.90;;;;;;4988706;28;20058;-68
2022/05/09 03:17:13;;;;;;;5.45;2.17;;;4.90;99.90;;;;;;4992597;28;20049;-67
2022/05/09 03:19:40;;;;;;;3.75;1.90;;;4.90;99.90;;;;;;4976176;28;20564;-70
2022/05/09 03:22:07;;;;;;;4.55;2.40;;;4.90;99.90;;;;;;4958905;28;20806;-68
2022/05/09 03:24:34;;;;;;;12.35;4.50;;;4.80;99.90;;;;;;4990683;28;20048;-68
2022/05/09 03:27:02;;;;;;;7.07;3.20;;;4.80;99.90;;;;;;4976411;28;20103;-68
2022/05/09 03:29:29;;;;;;;10.38;4.30;;;4.80;99.90;;;;;;4958217;28;20042;-69
2022/05/09 03:31:55;;;;;;;8.27;3.70;;;4.80;99.90;;;;;;4991267;28;20053;-67
2022/05/09 03:34:21;;;;;;;9.80;5.05;;;4.80;99.90;;;;;;4975562;28;20084;-68
2022/05/09 03:36:47;;;;;;;8.27;4.80;;;4.70;99.90;;;;;;4990925;28;20129;-70
2022/05/09 03:39:14;;;;;;;8.23;4.75;;;4.70;99.90;;;;;;4972149;28;20087;-67
2022/05/09 03:41:40;;;;;;;11.40;4.90;;;4.60;99.90;;;;;;4972363;28;20099;-69
2022/05/09 03:44:06;;;;;;;9.35;4.60;;;4.60;99.90;;;;;;5003978;28;20045;-69
2022/05/09 03:46:33;;;;;;;15.02;5.80;;;4.70;99.90;;;;;;4991471;28;20090;-69
2022/05/09 03:49:01;;;;;;;9.63;4.47;;;4.60;99.90;;;;;;4973275;28;20050;-68
2022/05/09 03:51:28;;;;;;;9.38;4.75;;;5.10;99.90;;;;;;4997057;28;20049;-67
2022/05/09 03:53:54;;;;;;;7.40;2.90;;;4.40;99.90;;;;;;4989295;28;20064;-68
2022/05/09 03:56:20;;;;;;;5.65;2.70;;;4.40;99.90;;;;;;4990106;28;20077;-68
2022/05/09 03:58:46;;;;;;;5.20;3.17;;;4.40;99.90;;;;;;4975591;28;20490;-67
2022/05/09 04:01:13;;;;;;;7.43;3.67;;;4.40;99.90;;;;;;4990552;28;20049;-68
2022/05/09 04:03:39;;;;;;;122.03;6.22;;;4.40;99.90;;;;;;4989630;28;20478;-68
2022/05/09 04:06:06;;;;;;;80.72;5.47;;;4.40;99.90;;;;;;4990971;28;20206;-68
2022/05/09 04:08:32;;;;;;;10.43;4.80;;;4.40;99.90;;;;;;4992449;28;20054;-69
2022/05/09 04:10:58;;;;;;;14.52;5.70;;;4.50;99.90;;;;;;4973009;28;20037;-68
2022/05/09 04:13:24;;;;;;;13.25;5.88;;;4.50;99.90;;;;;;4991289;28;20069;-72
2022/05/09 04:18:40;;;;;;;10.35;5.60;;;4.90;99.90;;;;;;4990162;28;20054;-69
2022/05/09 04:21:08;;;;;;;9.98;5.60;;;4.60;99.90;;;;;;4989069;28;20106;-69
2022/05/09 04:23:34;;;;;;;10.65;6.03;;;4.70;99.90;;;;;;4991405;28;20038;-67
2022/05/09 04:26:01;;;;;;;12.55;5.57;;;4.70;99.90;;;;;;4991701;28;20125;-67
2022/05/09 04:28:27;;;;;;;10.93;5.68;;;4.70;99.90;;;;;;4992805;28;20389;-68
2022/05/09 04:30:53;;;;;;;10.50;4.68;;;4.70;99.90;;;;;;4979731;28;20045;-67
2022/05/09 04:33:20;;;;;;;8.82;4.65;;;4.80;99.90;;;;;;4974692;28;20042;-67
2022/05/09 04:35:47;;;;;;;8.27;4.30;;;4.80;99.90;;;;;;4963346;28;20108;-67
2022/05/09 04:38:23;;;;;;;12.95;5.28;;;4.90;99.90;;;;;;4992135;28;20054;-68
2022/05/09 04:40:52;;;;;;;11.77;5.60;;;4.90;99.90;;;;;;4991321;28;20046;-68
2022/05/09 04:43:19;;;;;;;13.02;5.90;;;4.90;99.90;;;;;;4994481;28;20045;-67
2022/05/09 04:45:45;;;;;;;14.30;6.75;;;5.00;99.90;;;;;;4993224;28;20092;-69
2022/05/09 04:48:11;;;;;;;14.00;7.15;;;5.00;99.90;;;;;;4994418;28;20053;-67
2022/05/09 04:50:37;;;;;;;15.80;7.18;;;5.10;99.90;;;;;;4993445;28;20057;-67
2022/05/09 04:53:03;;;;;;;13.80;5.97;;;5.20;99.90;;;;;;4976551;28;20053;-67
2022/05/09 04:55:29;;;;;;;12.75;6.78;;;5.20;99.90;;;;;;4992069;28;20041;-67
2022/05/09 04:57:56;;;;;;;17.45;6.85;;;5.30;99.90;;;;;;4962079;28;20041;-67
2022/05/09 05:00:25;;;;;;;13.85;6.57;;;5.40;99.90;;;;;;4993265;28;20042;-70
2022/05/09 05:02:52;;;;;;;19.50;7.18;;;5.60;99.90;;;;;;5011302;28;20434;-68
2022/05/09 05:05:18;;;;;;;14.55;7.13;;;5.80;99.90;;;;;;4978542;28;20050;-69
2022/05/09 05:07:44;;;;;;;26.70;8.38;;;6.00;99.90;;;;;;4994229;28;20133;-68
2022/05/09 05:10:11;;;;;;;26.00;7.88;;;6.20;99.90;;;;;;4976428;28;20077;-67
2022/05/09 05:12:38;;;;;;;25.00;8.05;;;6.50;99.90;;;;;;4977223;28;20038;-69
2022/05/09 05:15:05;;;;;;;26.77;8.93;;;6.70;99.90;;;;;;4992306;28;20038;-68
2022/05/09 05:17:31;;;;;;;26.15;9.35;;;6.90;99.90;;;;;;4993794;28;20078;-68
2022/05/09 05:19:56;;;;;;;28.30;9.70;;;7.10;99.90;;;;;;4992361;28;20041;-69
2022/05/09 05:22:23;;;;;;;23.50;9.07;;;7.30;99.90;;;;;;4978866;28;20061;-68
2022/05/09 05:24:53;;;;;;;25.83;9.25;;;7.40;99.90;;;;;;4991809;28;20045;-68
2022/05/09 05:27:21;;;;;;;27.85;9.85;;;7.60;99.90;;;;;;4978884;28;20052;-68
2022/05/09 05:29:49;;;;;;;25.05;9.23;;;7.70;99.90;;;;;;4976297;28;20042;-68
2022/05/09 05:32:21;;;;;;;25.70;9.45;;;7.90;99.90;;;;;;4994585;28;20446;-70
2022/05/09 05:34:47;;;;;;;;;;;8.10;99.90;;;;;;4994633;28;20104;-68
2022/05/09 05:37:14;;;;;;;25.65;8.40;;;8.20;99.90;;;;;;4993125;28;19940;-70
2022/05/09 05:39:41;;;;;;;15.70;8.02;;;8.30;99.90;;;;;;4990862;28;20049;-68
2022/05/09 05:42:07;;;;;;;23.75;8.68;;;8.50;99.90;;;;;;4977190;28;20050;-69
2022/05/09 05:44:34;;;;;;;21.95;9.35;;;8.60;99.90;;;;;;4989297;28;20049;-68
2022/05/09 05:47:09;;;;;;;19.90;9.20;;;8.70;99.90;;;;;;4975737;28;20044;-68
2022/05/09 05:49:36;;;;;;;23.45;9.05;;;8.80;99.90;;;;;;4994914;28;20049;-68
2022/05/09 05:52:03;;;;;;;22.38;8.50;;;9.00;99.90;;;;;;4975034;28;20048;-68
2022/05/09 05:54:36;;;;;;;23.30;8.32;;;9.10;99.90;;;;;;4976779;28;20049;-69
2022/05/09 05:57:04;;;;;;;22.17;8.48;;;9.20;99.90;;;;;;4992793;28;20046;-68
2022/05/09 05:59:31;;;;;;;22.70;8.55;;;9.40;99.90;;;;;;4975111;28;20128;-68
2022/05/09 06:01:57;;;;;;;18.40;7.90;;;9.50;99.90;;;;;;4992531;28;20038;-68
2022/05/09 06:04:23;;;;;;;20.73;7.63;;;9.60;99.90;;;;;;4989551;28;20472;-68
2022/05/09 06:06:49;;;;;;;24.00;7.88;;;9.70;99.90;;;;;;4960928;28;20133;-68
2022/05/09 06:09:16;;;;;;;17.88;7.57;;;9.80;99.90;;;;;;4993189;28;20038;-70
2022/05/09 06:11:42;;;;;;;22.60;7.47;;;9.90;99.90;;;;;;4976755;28;20061;-68
2022/05/09 06:14:10;;;;;;;19.75;7.68;;;10.00;99.90;;;;;;4991043;28;20084;-67
2022/05/09 06:16:37;;;;;;;19.00;6.95;;;10.10;99.90;;;;;;4988024;28;20058;-69
2022/05/09 06:19:04;;;;;;;18.42;7.35;;;10.30;99.90;;;;;;5010233;28;20406;-68
2022/05/09 06:21:33;;;;;;;18.73;7.55;;;10.40;99.90;;;;;;4967002;28;20049;-68
2022/05/09 06:24:00;;;;;;;20.02;7.40;;;10.50;99.90;;;;;;4975349;28;20448;-68
2022/05/09 06:26:27;;;;;;;16.10;7.13;;;10.50;99.90;;;;;;4993163;28;20082;-74
2022/05/09 06:28:53;;;;;;;17.67;6.55;;;10.60;99.90;;;;;;4992751;28;20092;-71
2022/05/09 06:31:19;;;;;;;18.58;7.50;;;10.70;99.90;;;;;;4976795;28;20049;-68
2022/05/09 06:33:45;;;;;;;20.02;7.72;;;10.90;99.90;;;;;;4991894;28;20042;-68
2022/05/09 06:36:11;;;;;;;14.68;6.90;;;10.90;99.90;;;;;;4991415;28;20069;-68
2022/05/09 06:38:37;;;;;;;17.70;7.00;;;11.10;99.90;;;;;;4991256;28;20048;-67
2022/05/09 06:41:03;;;;;;;18.65;6.75;;;11.20;99.90;;;;;;4994221;28;20131;-68
2022/05/09 06:43:30;;;;;;;17.23;6.22;;;11.30;99.90;;;;;;4994762;28;20038;-68
2022/05/09 06:45:57;;;;;;;16.55;6.82;;;11.50;99.90;;;;;;4991394;28;20507;-68
2022/05/09 06:48:23;;;;;;;17.63;6.75;;;11.60;99.90;;;;;;4970259;28;20053;-68
2022/05/09 06:50:49;;;;;;;14.18;6.40;;;11.80;99.90;;;;;;4978201;28;20049;-68
2022/05/09 06:53:15;;;;;;;20.00;6.22;;;11.90;99.90;;;;;;4978376;28;20037;-69
2022/05/09 06:55:41;;;;;;;14.48;6.30;;;12.00;99.90;;;;;;4962151;28;20049;-68
2022/05/09 06:58:12;;;;;;;12.73;5.90;;;12.10;99.90;;;;;;4984902;28;20529;-69
2022/05/09 07:00:39;;;;;;;13.07;5.70;;;12.20;99.90;;;;;;4992018;28;20054;-69
2022/05/09 07:03:05;;;;;;;12.70;5.63;;;12.40;99.90;;;;;;4997222;28;20600;-68
2022/05/09 07:05:32;;;;;;;13.30;5.53;;;12.50;99.90;;;;;;4974675;28;20100;-68
2022/05/09 07:07:58;;;;;;;17.27;5.50;;;12.70;99.90;;;;;;5010221;28;20474;-67
2022/05/09 07:10:26;;;;;;;14.55;5.20;;;12.80;99.90;;;;;;4993411;28;20397;-68
2022/05/09 07:12:54;;;;;;;16.15;5.30;;;12.90;99.90;;;;;;4964779;28;20482;-70
2022/05/09 07:15:24;;;;;;;12.40;4.80;;;13.10;99.90;;;;;;4963935;28;20046;-68
2022/05/09 07:17:51;;;;;;;12.80;4.18;;;13.20;99.90;;;;;;4976410;28;20394;-67
2022/05/09 07:20:20;;;;;;;9.45;4.25;;;13.20;99.90;;;;;;4970665;28;20053;-70
2022/05/09 07:22:47;;;;;;;8.88;4.55;;;13.30;99.90;;;;;;4972835;28;20364;-68
2022/05/09 07:25:16;;;;;;;15.07;4.95;;;13.50;99.90;;;;;;5005229;28;20103;-68
2022/05/09 07:27:42;;;;;;;15.77;4.60;;;13.60;99.90;;;;;;4990948;28;20084;-68
2022/05/09 07:30:13;;;;;;;11.77;5.00;;;13.80;99.90;;;;;;4989158;28;20050;-69
2022/05/09 07:32:40;;;;;;;14.75;5.32;;;13.80;99.90;;;;;;4990958;28;20347;-70
2022/05/09 07:35:10;;;;;;;13.38;4.88;;;14.00;99.90;;;;;;5007855;28;20117;-69
2022/05/09 07:37:38;;;;;;;13.95;4.90;;;14.20;99.90;;;;;;4989760;28;20053;-68
2022/05/09 07:40:05;;;;;;;13.73;4.65;;;14.30;99.90;;;;;;5004924;28;20046;-68
2022/05/09 07:42:34;;;;;;;11.98;5.00;;;14.30;99.90;;;;;;4990862;28;20081;-69
2022/05/09 07:45:02;;;;;;;13.35;5.22;;;14.50;99.90;;;;;;4991086;28;20053;-69
2022/05/09 07:47:28;;;;;;;12.60;6.03;;;14.50;99.90;;;;;;4993913;28;20050;-69
2022/05/09 07:49:57;;;;;;;15.60;5.03;;;14.70;99.90;;;;;;4994111;28;20445;-69
2022/05/09 07:52:24;;;;;;;18.35;5.22;;;14.80;99.90;;;;;;4978527;28;20053;-69
2022/05/09 07:54:51;;;;;;;10.80;4.65;;;15.00;99.90;;;;;;4968679;28;20042;-69
2022/05/09 07:57:17;;;;;;;13.07;4.85;;;15.20;99.90;;;;;;4976100;28;20042;-69
2022/05/09 07:59:43;;;;;;;11.75;5.00;;;15.30;99.90;;;;;;4987007;28;20137;-69
2022/05/09 08:02:10;;;;;;;16.73;5.10;;;15.40;99.90;;;;;;4977093;28;20069;-70
2022/05/09 08:04:36;;;;;;;12.10;5.22;;;15.50;99.90;;;;;;5011133;28;20113;-68
2022/05/09 08:07:02;;;;;;;13.02;4.93;;;15.60;99.90;;;;;;4976546;28;20046;-68
2022/05/09 08:09:29;;;;;;;12.30;5.20;;;15.70;99.90;;;;;;4990214;28;20128;-69
2022/05/09 08:11:57;;;;;;;11.98;5.10;;;15.80;99.90;;;;;;4992882;28;20462;-69
2022/05/09 08:14:24;;;;;;;9.63;4.80;;;16.00;99.90;;;;;;4972482;28;20054;-69
2022/05/09 08:16:51;;;;;;;13.90;4.82;;;16.10;99.90;;;;;;4994752;28;20101;-69
2022/05/09 08:19:17;;;;;;;14.32;5.10;;;16.20;99.90;;;;;;4996908;28;20046;-69
2022/05/09 08:21:47;;;;;;;12.70;4.90;;;16.20;99.90;;;;;;4996442;28;20382;-69
2022/05/09 08:24:13;;;;;;;15.30;5.07;;;16.40;99.90;;;;;;5011174;28;20050;-69
2022/05/09 08:26:39;;;;;;;12.80;4.75;;;16.60;99.90;;;;;;4994948;28;20042;-72
2022/05/09 08:29:07;;;;;;;12.50;4.40;;;16.80;99.90;;;;;;4963489;28;20408;-69
2022/05/09 08:31:34;;;;;;;12.70;4.55;;;16.80;99.90;;;;;;4992755;28;20052;-68
2022/05/09 08:34:00;;;;;;;11.07;5.00;;;16.90;99.90;;;;;;4992761;28;20486;-69
2022/05/09 08:39:14;;;;;;;13.32;4.85;;;16.90;99.90;;;;;;4994050;28;20061;-70
2022/05/09 08:41:44;;;;;;;12.18;4.90;;;16.90;99.90;;;;;;4993637;28;20458;-69
2022/05/09 08:44:36;;;;;;;13.75;4.57;;;17.10;99.90;;;;;;4977498;28;20038;-69
2022/05/09 08:47:41;;;;;;;15.85;4.60;;;17.30;99.90;;;;;;5000178;28;20423;-69
2022/05/09 08:50:19;;;;;;;13.98;4.85;;;17.20;99.20;;;;;;4991193;28;20046;-71
2022/05/09 08:53:02;;;;;;;12.98;5.13;;;17.40;99.90;;;;;;4991030;28;20094;-70
2022/05/09 08:55:36;;;;;;;10.73;4.97;;;17.50;99.90;;;;;;4975173;28;20470;-69
2022/05/09 08:58:37;;;;;;;13.98;5.30;;;17.60;99.90;;;;;;4987810;28;20482;-70
2022/05/09 09:01:11;;;;;;;13.65;4.68;;;17.80;99.90;;;;;;4993905;28;20044;-69
2022/05/09 09:03:43;;;;;;;11.38;4.93;;;18.00;99.90;;;;;;4993882;28;20034;-70
2022/05/09 09:06:30;;;;;;;12.63;4.70;;;18.00;99.90;;;;;;4976168;28;20136;-70
2022/05/09 09:09:14;;;;;;;11.85;4.55;;;18.20;99.90;;;;;;4991729;28;20458;-72
2022/05/09 09:11:52;;;;;;;10.07;4.38;;;18.20;88.20;;;;;;4994084;28;20057;-69
2022/05/09 09:14:27;;;;;;;21.90;4.93;;;18.40;92.20;;;;;;4991748;28;20133;-72
2022/05/09 09:17:04;;;;;;;12.32;4.50;;;18.50;96.20;;;;;;4971312;28;20057;-68
2022/05/09 09:19:45;;;;;;;14.13;4.68;;;18.60;83.00;;;;;;4977301;28;20042;-83
2022/05/09 09:22:37;;;;;;;13.55;5.03;;;18.70;79.80;;;;;;4992955;28;20054;-69
2022/05/09 09:25:29;;;;;;;10.20;4.72;;;18.80;76.50;;;;;;4991250;28;20552;-71
2022/05/09 09:28:13;;;;;;;10.35;4.57;;;18.90;72.50;;;;;;4988803;28;20398;-70
2022/05/09 09:30:40;;;;;;;10.10;4.40;;;19.00;85.70;;;;;;5007011;28;20486;-69
2022/05/09 09:33:10;;;;;;;12.40;4.60;;;19.20;83.50;;;;;;4973259;28;20074;-70
2022/05/09 09:35:39;;;;;;;10.10;4.32;;;19.20;79.30;;;;;;5011266;28;20053;-72
2022/05/09 09:38:12;;;;;;;12.02;4.63;;;19.40;80.20;;;;;;4991986;28;20057;-72
2022/05/09 09:40:38;;;;;;;9.07;3.83;;;19.60;68.90;;;;;;5007269;28;20462;-70
2022/05/09 09:43:05;;;;;;;9.05;3.88;;;19.50;69.50;;;;;;4992288;28;20096;-70
2022/05/09 09:45:40;;;;;;;10.85;3.92;;;19.60;70.30;;;;;;4974212;28;20385;-69
2022/05/09 09:48:13;;;;;;;11.38;4.50;;;19.80;65.80;;;;;;5009420;28;20064;-70
2022/05/09 09:50:50;;;;;;;8.25;3.95;;;19.90;65.00;;;;;;4995719;28;20042;-70
2022/05/09 09:53:49;;;;;;;13.05;3.95;;;20.00;63.30;;;;;;4992367;28;20049;-70
2022/05/09 09:56:21;;;;;;;13.35;3.65;;;20.20;62.00;;;;;;4984986;28;20418;-72
2022/05/09 09:58:52;;;;;;;9.57;3.72;;;20.30;62.30;;;;;;4975030;28;20058;-70
2022/05/09 10:01:26;;;;;;;9.70;3.72;;;20.30;62.10;;;;;;4995081;28;20068;-70
2022/05/09 10:04:10;;;;;;;6.30;3.20;;;20.50;62.30;;;;;;4987819;28;20057;-69
2022/05/09 10:06:58;;;;;;;10.13;3.67;;;20.30;54.20;;;;;;4987822;28;20132;-70
2022/05/09 10:09:51;;;;;;;9.02;3.78;;;20.30;56.30;;;;;;4983577;28;20467;-69
2022/05/09 10:12:23;;;;;;;11.02;3.72;;;20.20;58.10;;;;;;4955417;28;20520;-69
2022/05/09 10:14:50;;;;;;;9.93;3.30;;;20.60;60.00;;;;;;5006338;28;20053;-71
2022/05/09 10:17:25;;;;;;;9.43;3.33;;;20.60;58.60;;;;;;4973535;28;20045;-69
2022/05/09 10:19:54;;;;;;;9.45;3.25;;;20.90;57.60;;;;;;5009770;28;20056;-69
2022/05/09 10:25:30;;;;;;;9.75;3.90;;;21.10;55.20;;;;;;5009050;28;20081;-70
2022/05/09 10:28:18;;;;;;;11.48;2.97;;;21.30;57.20;;;;;;5008387;28;20111;-70
2022/05/09 10:30:47;;;;;;;6.18;2.58;;;21.60;57.90;;;;;;4988875;28;20041;-71
2022/05/09 10:33:39;;;;;;;7.22;2.83;;;21.50;56.30;;;;;;4993693;28;20049;-69
2022/05/09 10:36:19;;;;;;;9.10;2.90;;;21.60;55.50;;;;;;4988916;28;20065;-70
2022/05/09 10:38:55;;;;;;;7.18;2.80;;;21.50;56.10;;;;;;4994749;28;20433;-71
2022/05/09 10:41:31;;;;;;;9.65;2.85;;;21.70;56.20;;;;;;4988525;28;20033;-70
2022/05/09 10:44:04;;;;;;;10.43;3.10;;;21.90;56.20;;;;;;4989616;28;20081;-69
2022/05/09 10:46:51;;;;;;;8.52;2.47;;;21.90;54.80;;;;;;4995121;28;20046;-70
2022/05/09 10:49:47;;;;;;;9.02;2.40;;;22.10;52.20;;;;;;4991965;28;20038;-69
2022/05/09 10:52:47;;;;;;;12.27;3.03;;;22.00;53.90;;;;;;4987301;28;20109;-70
2022/05/09 10:55:13;;;;;;;8.50;2.60;;;22.10;53.20;;;;;;4960669;28;20378;-71
2022/05/09 10:57:41;;;;;;;8.88;3.13;;;22.10;54.30;;;;;;4988448;28;20045;-70
2022/05/09 11:00:18;;;;;;;6.35;2.50;;;22.10;53.10;;;;;;4974274;28;20041;-71
2022/05/09 11:02:57;;;;;;;8.93;2.67;;;22.30;52.80;;;;;;4978025;28;20049;-71
2022/05/09 11:05:25;;;;;;;7.93;2.42;;;22.40;53.00;;;;;;5003369;28;20053;-70
2022/05/09 11:08:02;;;;;;;8.55;3.33;;;22.40;53.40;;;;;;4992928;28;20041;-71
2022/05/09 11:10:54;;;;;;;19.45;5.10;;;22.70;53.20;;;;;;5009270;28;20092;-69
2022/05/09 11:13:39;;;;;;;8.98;2.70;;;22.70;51.40;;;;;;4974678;28;20042;-69
2022/05/09 11:16:17;;;;;;;8.98;3.03;;;22.70;51.70;;;;;;5008808;28;20127;-70
2022/05/09 11:19:04;;;;;;;29.80;5.60;;;22.70;50.80;;;;;;4991411;28;20060;-70
2022/05/09 11:21:52;;;;;;;5.75;2.25;;;22.80;51.60;;;;;;4990046;28;20049;-71
2022/05/09 11:24:44;;;;;;;7.95;2.30;;;22.80;51.50;;;;;;4990191;28;20128;-70
2022/05/09 11:27:28;;;;;;;5.28;2.20;;;23.00;48.40;;;;;;4966746;28;20048;-69
2022/05/09 11:29:56;;;;;;;7.28;2.50;;;23.20;49.80;;;;;;4991090;28;20050;-70
2022/05/09 11:32:37;;;;;;;9.77;2.85;;;23.40;50.80;;;;;;4963451;28;20503;-72
2022/05/09 11:35:17;;;;;;;7.70;2.35;;;23.40;50.70;;;;;;4975331;28;20093;-72
2022/05/09 11:37:59;;;;;;;7.03;2.40;;;23.70;48.70;;;;;;4983805;28;20136;-72
2022/05/09 11:40:34;;;;;;;9.20;2.15;;;23.80;49.30;;;;;;4990752;28;20151;-73
2022/05/09 11:43:28;;;;;;;7.72;2.20;;;23.90;50.40;;;;;;4991838;28;20070;-72
2022/05/09 11:46:32;;;;;;;7.03;2.33;;;24.20;47.20;;;;;;5005764;28;20121;-72
2022/05/09 11:49:05;;;;;;;3.78;2.30;;;23.80;47.10;;;;;;4992416;28;20057;-72
2022/05/09 11:51:31;;;;;;;4.38;2.00;;;23.80;48.70;;;;;;4988393;28;20394;-71
2022/05/09 11:54:01;;;;;;;9.43;2.30;;;23.80;49.00;;;;;;4991685;28;20099;-71
2022/05/09 11:56:30;;;;;;;8.50;2.40;;;24.00;49.00;;;;;;4990093;28;20049;-71
2022/05/09 11:58:58;;;;;;;5.90;2.13;;;24.20;49.20;;;;;;4976807;28;20045;-70
2022/05/09 12:01:58;;;;;;;7.07;2.10;;;24.00;48.50;;;;;;4962185;28;20429;-71
2022/05/09 12:04:34;;;;;;;8.65;2.30;;;24.30;46.80;;;;;;4989007;28;20129;-70
2022/05/09 12:07:21;;;;;;;4.80;2.00;;;24.50;47.80;;;;;;4992097;28;20096;-71
2022/05/09 12:10:02;;;;;;;5.65;2.40;;;24.30;48.50;;;;;;4964869;28;20050;-69
2022/05/09 12:12:37;;;;;;;5.18;2.50;;;24.70;48.10;;;;;;4975636;28;20409;-70
2022/05/09 12:15:24;;;;;;;6.63;2.53;;;24.70;48.90;;;;;;4992000;28;20050;-71
2022/05/09 12:18:02;;;;;;;6.38;2.45;;;24.50;46.00;;;;;;5000794;28;20490;-70
2022/05/09 12:20:28;;;;;;;5.65;2.50;;;24.40;46.40;;;;;;4993236;28;20041;-69
2022/05/09 12:22:56;;;;;;;5.72;2.50;;;24.60;47.70;;;;;;4983983;28;20049;-71
2022/05/09 12:25:36;;;;;;;4.65;2.45;;;24.50;46.90;;;;;;4993754;28;20045;-71
2022/05/09 12:28:19;;;;;;;5.65;2.30;;;24.70;46.60;;;;;;4990436;28;20069;-72
2022/05/09 12:31:01;;;;;;;6.07;2.60;;;25.00;47.60;;;;;;4989690;28;20386;-73
2022/05/09 12:33:45;;;;;;;7.57;2.72;;;25.10;47.50;;;;;;4974329;28;20057;-70
2022/05/09 12:36:23;;;;;;;6.72;2.30;;;25.00;46.70;;;;;;4988470;28;20041;-71
2022/05/09 12:38:51;;;;;;;8.98;2.45;;;25.30;45.00;;;;;;4987564;28;20054;-74
2022/05/09 12:41:19;;;;;;;5.40;2.33;;;25.60;46.90;;;;;;4974472;28;20470;-73
2022/05/09 12:43:59;;;;;;;4.40;2.45;;;25.60;47.40;;;;;;4989576;28;20062;-73
2022/05/09 12:46:32;;;;;;;4.15;2.25;;;26.00;46.50;;;;;;4990229;28;20076;-76
2022/05/09 12:49:01;;;;;;;5.38;1.88;;;26.20;46.00;;;;;;4991250;28;20383;-72
2022/05/09 12:51:30;;;;;;;6.13;2.30;;;26.20;46.40;;;;;;5001997;28;20550;-70
2022/05/09 12:53:57;;;;;;;7.03;2.33;;;26.20;43.10;;;;;;4988445;28;20050;-71
2022/05/09 12:56:28;;;;;;;6.65;2.67;;;26.20;45.10;;;;;;4990346;28;20052;-71
2022/05/09 12:59:07;;;;;;;6.97;2.80;;;26.00;44.10;;;;;;4990762;28;20111;-70
2022/05/09 13:01:35;;;;;;;5.32;2.30;;;26.20;42.50;;;;;;4989841;28;20100;-71
2022/05/09 13:04:07;;;;;;;6.15;2.47;;;26.40;44.20;;;;;;4992433;28;20716;-74
2022/05/09 13:06:44;;;;;;;7.88;2.40;;;27.00;43.10;;;;;;4991963;28;20520;-81
2022/05/09 13:09:23;;;;;;;5.60;2.65;;;26.50;42.20;;;;;;5009445;28;20034;-76
2022/05/09 13:11:54;;;;;;;8.25;2.70;;;26.90;42.40;;;;;;5007749;28;20198;-80
2022/05/09 13:14:32;;;;;;;5.45;2.58;;;26.70;41.40;;;;;;4993744;28;20073;-76
2022/05/09 13:17:02;;;;;;;7.28;2.50;;;26.40;42.80;;;;;;4995565;28;20037;-76